Time;durP1;ratioP1;P1;durP2;ratioP2;P2;SDS_P1;SDS_P2;PMS_P1;PMS_P2;Temp;Humidity;BMP_temperature;BMP_pressure;BME280_temperature;BME280_humidity;BME280_pressure;Samples;Min_cycle;Max_cycle;Signal;HPM_P1;HPM_P2
2023/03/03 06:07:17;;;;;;;46.97;24.13;;;;;;;;;;5071929;23;20063;-59
2023/03/03 06:09:43;;;;;;;48.97;25.90;;;;;;;;;;4858576;29;20061;-59
2023/03/03 06:12:09;;;;;;;51.72;24.90;;;;;;;;;;4859394;29;20169;-58
2023/03/03 06:14:35;;;;;;;50.65;25.92;;;;;;;;;;4851166;29;20178;-58
2023/03/03 06:17:01;;;;;;;53.80;27.90;;;;;;;;;;4840090;29;20075;-72
2023/03/03 06:19:27;;;;;;;44.22;24.40;;;;;;;;;;4840068;29;20041;-60
2023/03/03 06:21:54;;;;;;;50.72;28.20;;;;;;;;;;4840157;29;20477;-76
2023/03/03 06:24:20;;;;;;;48.28;25.83;;;;;;;;;;4840127;29;20058;-59
2023/03/03 06:26:46;;;;;;;46.60;25.08;;;;;;;;;;4840232;29;20030;-65
2023/03/03 06:29:12;;;;;;;48.95;25.20;;;;;;;;;;4840171;29;20550;-62
2023/03/03 06:31:38;;;;;;;47.65;26.00;;;;;;;;;;4840017;29;20479;-58
2023/03/03 06:34:04;;;;;;;50.25;25.55;;;;;;;;;;4840288;29;20030;-58
2023/03/03 06:36:30;;;;;;;49.20;26.75;;;;;;;;;;4840031;29;20034;-58
2023/03/03 06:38:56;;;;;;;48.92;25.83;;;;;;;;;;4839712;29;20041;-64
2023/03/03 06:41:22;;;;;;;47.22;25.92;;;;;;;;;;4840009;29;20030;-63
2023/03/03 06:43:48;;;;;;;52.63;27.38;;;;;;;;;;4840781;29;20475;-76
2023/03/03 06:46:14;;;;;;;51.10;27.40;;;;;;;;;;4843468;29;20034;-60
2023/03/03 06:48:40;;;;;;;53.88;27.77;;;;;;;;;;4843347;29;20043;-62
2023/03/03 06:51:16;;;;;;;50.58;27.08;;;;;;;;;;4843098;29;20201;-79
2023/03/03 06:53:42;;;;;;;51.17;26.98;;;;;;;;;;4856953;29;20120;-60
2023/03/03 06:56:08;;;;;;;57.63;28.33;;;;;;;;;;4861881;29;20124;-59
2023/03/03 06:58:34;;;;;;;53.10;28.42;;;;;;;;;;4861666;29;20034;-72
2023/03/03 07:01:01;;;;;;;53.20;28.80;;;;;;;;;;4860317;29;20033;-60
2023/03/03 07:03:32;;;;;;;64.22;30.02;;;;;;;;;;4861751;29;20042;-63
2023/03/03 07:05:58;;;;;;;60.45;32.58;;;;;;;;;;4861285;29;20065;-61
2023/03/03 07:08:25;;;;;;;57.47;30.50;;;;;;;;;;4861470;29;20037;-68
2023/03/03 07:10:52;;;;;;;69.47;34.28;;;;;;;;;;4835301;29;20034;-59
2023/03/03 07:13:25;;;;;;;63.97;32.13;;;;;;;;;;4832652;29;20030;-58
2023/03/03 07:15:55;;;;;;;52.78;29.65;;;;;;;;;;4831620;29;20026;-61
2023/03/03 07:18:31;;;;;;;54.78;27.45;;;;;;;;;;4832059;29;20104;-60
2023/03/03 07:20:57;;;;;;;48.72;26.40;;;;;;;;;;4832339;29;20030;-60
2023/03/03 07:23:24;;;;;;;59.97;30.98;;;;;;;;;;4831822;29;20022;-61
2023/03/03 07:25:52;;;;;;;44.15;25.55;;;;;;;;;;4833546;29;20026;-60
2023/03/03 07:28:25;;;;;;;47.00;28.00;;;;;;;;;;4835124;29;20049;-59
2023/03/03 07:30:55;;;;;;;43.65;24.45;;;;;;;;;;4842624;29;20121;-58
2023/03/03 07:33:26;;;;;;;45.35;24.65;;;;;;;;;;4842536;29;20541;-59
2023/03/03 07:35:57;;;;;;;44.50;25.27;;;;;;;;;;4842560;29;20046;-59
2023/03/03 07:38:23;;;;;;;62.78;31.38;;;;;;;;;;4833744;29;20062;-59
2023/03/03 07:40:50;;;;;;;96.38;48.10;;;;;;;;;;4824145;29;20380;-59
2023/03/03 07:43:37;;;;;;;47.55;26.58;;;;;;;;;;4824008;29;20111;-59
2023/03/03 07:46:22;;;;;;;44.92;24.88;;;;;;;;;;4824086;29;20023;-59
2023/03/03 07:48:48;;;;;;;44.90;23.55;;;;;;;;;;4837993;29;20113;-58
2023/03/03 07:51:14;;;;;;;45.97;25.20;;;;;;;;;;4842113;29;20058;-59
2023/03/03 07:53:40;;;;;;;54.15;28.50;;;;;;;;;;4841525;29;20436;-59
2023/03/03 07:56:16;;;;;;;57.95;30.48;;;;;;;;;;4831854;29;20030;-63
2023/03/03 07:58:43;;;;;;;58.42;32.08;;;;;;;;;;4837787;29;20034;-60
2023/03/03 08:01:18;;;;;;;61.30;32.47;;;;;;;;;;4830931;29;20051;-69
2023/03/03 08:03:45;;;;;;;59.85;31.63;;;;;;;;;;4829668;29;20053;-61
2023/03/03 08:06:31;;;;;;;58.45;31.95;;;;;;;;;;4822957;29;20054;-79
2023/03/03 08:09:01;;;;;;;58.30;31.15;;;;;;;;;;4841099;29;20090;-68
2023/03/03 08:11:27;;;;;;;58.80;31.23;;;;;;;;;;4841870;29;20038;-60
2023/03/03 08:13:53;;;;;;;56.60;30.55;;;;;;;;;;4841551;29;20033;-72
2023/03/03 08:16:49;;;;;;;53.28;29.70;;;;;;;;;;4841689;29;20034;-60
2023/03/03 08:19:17;;;;;;;52.70;28.55;;;;;;;;;;4767109;30;20141;-60
2023/03/03 08:21:43;;;;;;;50.60;28.27;;;;;;;;;;4766970;30;20536;-60
2023/03/03 08:24:09;;;;;;;49.85;27.63;;;;;;;;;;4767135;30;20079;-61
2023/03/03 08:26:35;;;;;;;50.20;28.17;;;;;;;;;;4767174;30;20043;-60
2023/03/03 08:29:01;;;;;;;52.42;29.50;;;;;;;;;;4767182;30;20039;-78
2023/03/03 08:31:28;;;;;;;57.03;30.05;;;;;;;;;;4766917;30;20044;-66
2023/03/03 08:33:54;;;;;;;54.40;28.48;;;;;;;;;;4766774;30;20116;-74
2023/03/03 08:36:20;;;;;;;52.75;29.48;;;;;;;;;;4766653;30;20063;-63
2023/03/03 08:38:46;;;;;;;49.03;27.40;;;;;;;;;;4767110;30;20128;-70
2023/03/03 08:41:12;;;;;;;60.47;31.02;;;;;;;;;;4767112;30;20401;-80
2023/03/03 08:43:38;;;;;;;50.97;28.88;;;;;;;;;;4766874;30;20052;-65
2023/03/03 08:46:05;;;;;;;49.90;28.33;;;;;;;;;;4766867;30;20046;-72
2023/03/03 08:48:32;;;;;;;50.58;28.42;;;;;;;;;;4766831;30;20120;-63
2023/03/03 08:50:58;;;;;;;52.42;29.65;;;;;;;;;;4766498;30;20060;-64
2023/03/03 08:53:24;;;;;;;54.33;28.73;;;;;;;;;;4766590;30;20032;-62
2023/03/03 08:55:50;;;;;;;54.35;31.08;;;;;;;;;;4810916;29;20116;-60
2023/03/03 08:58:17;;;;;;;58.03;29.98;;;;;;;;;;4841103;29;20034;-59
2023/03/03 09:00:43;;;;;;;49.88;30.08;;;;;;;;;;4841092;29;20511;-76
2023/03/03 09:03:09;;;;;;;51.15;30.60;;;;;;;;;;4841033;29;20525;-59
2023/03/03 09:05:36;;;;;;;49.83;28.63;;;;;;;;;;4840549;29;20058;-72
2023/03/03 09:08:03;;;;;;;51.90;28.52;;;;;;;;;;4840032;29;20057;-74
2023/03/03 09:10:30;;;;;;;49.65;28.77;;;;;;;;;;4840478;29;20057;-72
2023/03/03 09:13:00;;;;;;;48.63;28.42;;;;;;;;;;4840705;29;20453;-73
2023/03/03 09:15:27;;;;;;;43.88;26.85;;;;;;;;;;4841023;29;20026;-60
2023/03/03 09:17:54;;;;;;;53.60;29.45;;;;;;;;;;4840987;29;20113;-60
2023/03/03 09:20:29;;;;;;;44.42;25.45;;;;;;;;;;4840992;29;20074;-71
2023/03/03 09:22:55;;;;;;;49.58;27.90;;;;;;;;;;4840443;29;20123;-59
2023/03/03 09:25:32;;;;;;;40.97;25.58;;;;;;;;;;4840829;29;20090;-58
2023/03/03 09:27:58;;;;;;;47.63;26.27;;;;;;;;;;4840470;29;20042;-60
2023/03/03 09:30:38;;;;;;;42.67;26.50;;;;;;;;;;4840316;29;20067;-77
2023/03/03 09:33:37;;;;;;;48.40;26.90;;;;;;;;;;4840502;29;20107;-60
2023/03/03 09:36:12;;;;;;;46.45;26.50;;;;;;;;;;4765351;30;20181;-68
2023/03/03 09:38:42;;;;;;;46.50;27.38;;;;;;;;;;4765826;30;20048;-61
2023/03/03 09:41:19;;;;;;;45.97;26.75;;;;;;;;;;4766226;30;20440;-60
2023/03/03 09:43:57;;;;;;;48.58;27.15;;;;;;;;;;4766099;30;20065;-74
2023/03/03 09:46:42;;;;;;;53.95;29.20;;;;;;;;;;4764296;30;20047;-60
2023/03/03 09:49:16;;;;;;;52.28;28.73;;;;;;;;;;4751773;30;20050;-59
2023/03/03 09:51:42;;;;;;;46.88;27.35;;;;;;;;;;4756417;30;20170;-72
2023/03/03 09:54:31;;;;;;;47.70;26.65;;;;;;;;;;4755705;30;20115;-60
2023/03/03 09:56:57;;;;;;;43.85;24.73;;;;;;;;;;4751499;30;20044;-60
2023/03/03 09:59:32;;;;;;;46.78;26.70;;;;;;;;;;4756606;30;20397;-60
2023/03/03 10:02:07;;;;;;;44.83;26.20;;;;;;;;;;4764073;30;20043;-59
2023/03/03 10:04:59;;;;;;;47.85;27.65;;;;;;;;;;4757464;30;20040;-69
2023/03/03 10:07:44;;;;;;;52.45;27.65;;;;;;;;;;4751641;30;20485;-60
2023/03/03 10:10:29;;;;;;;46.58;27.15;;;;;;;;;;4751523;30;20067;-79
2023/03/03 10:13:22;;;;;;;48.30;27.92;;;;;;;;;;4828699;29;20502;-69
2023/03/03 10:16:04;;;;;;;50.58;28.83;;;;;;;;;;4825803;29;20042;-74
2023/03/03 10:18:41;;;;;;;50.25;28.33;;;;;;;;;;4828951;29;20159;-71
2023/03/03 10:21:10;;;;;;;47.63;28.50;;;;;;;;;;4832478;29;20510;-60
2023/03/03 10:23:39;;;;;;;54.25;28.90;;;;;;;;;;4834548;29;20034;-67
2023/03/03 10:26:05;;;;;;;52.08;28.60;;;;;;;;;;4831999;29;20045;-60
2023/03/03 10:28:34;;;;;;;53.80;30.05;;;;;;;;;;4833526;29;20030;-59
2023/03/03 10:31:35;;;;;;;52.53;29.33;;;;;;;;;;4823733;29;20038;-78
2023/03/03 10:34:07;;;;;;;49.40;27.98;;;;;;;;;;4767899;30;20032;-62
2023/03/03 10:37:08;;;;;;;46.30;27.73;;;;;;;;;;4765428;30;20056;-60
2023/03/03 10:39:35;;;;;;;47.47;26.15;;;;;;;;;;4661341;30;20566;-59
2023/03/03 10:42:01;;;;;;;51.08;28.92;;;;;;;;;;4656895;30;20134;-82
2023/03/03 10:44:46;;;;;;;44.15;25.90;;;;;;;;;;4656381;30;20106;-71
2023/03/03 10:47:12;;;;;;;48.42;26.52;;;;;;;;;;4655696;30;20679;-64
2023/03/03 10:49:56;;;;;;;44.78;25.90;;;;;;;;;;4655450;30;20060;-82
2023/03/03 10:52:30;;;;;;;44.38;25.73;;;;;;;;;;4655472;30;20054;-61
2023/03/03 10:55:16;;;;;;;49.97;26.58;;;;;;;;;;4655160;30;20031;-60
2023/03/03 10:57:51;;;;;;;42.22;24.27;;;;;;;;;;4654973;30;20045;-60
2023/03/03 11:00:17;;;;;;;38.92;24.17;;;;;;;;;;4655189;30;20056;-65
2023/03/03 11:02:58;;;;;;;41.17;25.13;;;;;;;;;;4652439;30;20046;-64
2023/03/03 11:05:42;;;;;;;44.00;25.08;;;;;;;;;;4656100;30;20137;-70
2023/03/03 11:08:23;;;;;;;43.15;25.13;;;;;;;;;;4666486;30;20107;-60
2023/03/03 11:10:58;;;;;;;41.97;23.02;;;;;;;;;;4713893;30;20063;-59
2023/03/03 11:13:41;;;;;;;39.97;24.42;;;;;;;;;;4758896;29;20510;-60
2023/03/03 11:16:27;;;;;;;40.15;23.63;;;;;;;;;;4810585;29;20038;-67
2023/03/03 11:18:53;;;;;;;37.97;23.08;;;;;;;;;;4810506;29;20058;-72
2023/03/03 11:21:19;;;;;;;44.00;25.30;;;;;;;;;;4797715;29;20034;-79
2023/03/03 11:23:51;;;;;;;52.42;30.58;;;;;;;;;;4813986;29;20066;-77
2023/03/03 11:26:20;;;;;;;42.30;25.33;;;;;;;;;;4808781;29;20434;-81
2023/03/03 11:28:53;;;;;;;40.05;22.50;;;;;;;;;;4806578;29;20110;-60
2023/03/03 11:31:28;;;;;;;39.28;22.17;;;;;;;;;;4809169;29;20039;-59
2023/03/03 11:34:09;;;;;;;39.28;23.50;;;;;;;;;;4824371;29;20109;-64
2023/03/03 11:36:38;;;;;;;72.55;38.30;;;;;;;;;;4823875;29;20597;-64
2023/03/03 11:39:09;;;;;;;40.92;23.27;;;;;;;;;;4808150;29;20616;-60
2023/03/03 11:41:38;;;;;;;44.05;22.90;;;;;;;;;;4824374;29;20444;-60
2023/03/03 11:44:04;;;;;;;38.88;21.45;;;;;;;;;;4825071;29;20042;-61
2023/03/03 11:46:34;;;;;;;37.28;22.02;;;;;;;;;;4815262;29;20031;-60
2023/03/03 11:49:06;;;;;;;37.92;20.67;;;;;;;;;;4807969;29;20074;-60
2023/03/03 11:51:38;;;;;;;36.72;22.85;;;;;;;;;;4811181;29;20043;-59
2023/03/03 11:54:09;;;;;;;36.97;21.52;;;;;;;;;;4818595;29;20391;-63
2023/03/03 11:56:45;;;;;;;31.77;19.13;;;;;;;;;;4820097;29;20031;-74
2023/03/03 11:59:17;;;;;;;33.60;18.77;;;;;;;;;;4814742;29;20043;-74
2023/03/03 12:01:57;;;;;;;37.83;20.38;;;;;;;;;;4810370;29;20027;-90
2023/03/03 12:04:43;;;;;;;34.63;19.90;;;;;;;;;;4819202;29;20058;-69
2023/03/03 12:07:44;;;;;;;34.38;19.92;;;;;;;;;;4820013;29;20115;-75
2023/03/03 12:10:18;;;;;;;33.80;19.67;;;;;;;;;;4739353;30;20123;-73
2023/03/03 12:12:50;;;;;;;32.45;18.92;;;;;;;;;;4737851;30;20063;-61
2023/03/03 12:15:24;;;;;;;35.10;19.23;;;;;;;;;;4738597;30;20029;-60
2023/03/03 12:18:02;;;;;;;33.20;19.15;;;;;;;;;;4738869;30;20390;-60
2023/03/03 12:20:28;;;;;;;32.50;19.60;;;;;;;;;;4731901;30;20036;-59
2023/03/03 12:23:03;;;;;;;33.08;20.63;;;;;;;;;;4737615;30;20063;-60
2023/03/03 12:25:39;;;;;;;33.10;20.52;;;;;;;;;;4745139;30;20048;-66
2023/03/03 12:28:20;;;;;;;33.03;20.23;;;;;;;;;;4735259;30;20571;-60
2023/03/03 12:30:59;;;;;;;36.75;21.98;;;;;;;;;;4736514;30;20036;-60
2023/03/03 12:33:33;;;;;;;37.05;21.83;;;;;;;;;;4738004;30;20050;-74
2023/03/03 12:36:09;;;;;;;35.60;21.38;;;;;;;;;;4731648;30;20479;-60
2023/03/03 12:38:53;;;;;;;40.47;24.17;;;;;;;;;;4745520;30;20143;-67
2023/03/03 12:41:19;;;;;;;40.67;24.65;;;;;;;;;;4748696;30;20032;-60
2023/03/03 12:43:48;;;;;;;36.25;20.83;;;;;;;;;;4767724;29;20046;-61
2023/03/03 12:46:26;;;;;;;33.25;19.85;;;;;;;;;;4821272;29;20034;-64
2023/03/03 12:48:52;;;;;;;29.20;17.90;;;;;;;;;;4822585;29;20026;-61
2023/03/03 12:51:31;;;;;;;33.88;18.27;;;;;;;;;;4814821;29;20092;-60
2023/03/03 12:54:15;;;;;;;33.85;17.85;;;;;;;;;;4810804;29;20062;-60
2023/03/03 12:56:47;;;;;;;29.67;18.08;;;;;;;;;;4812327;29;20038;-61
2023/03/03 12:59:35;;;;;;;31.87;18.27;;;;;;;;;;4815794;29;20084;-62
2023/03/03 13:02:08;;;;;;;33.17;17.92;;;;;;;;;;4815708;29;20393;-61
2023/03/03 13:04:38;;;;;;;31.45;18.38;;;;;;;;;;4809919;29;21019;-72
2023/03/03 13:07:23;;;;;;;30.55;17.17;;;;;;;;;;4803839;29;20055;-62
2023/03/03 13:09:49;;;;;;;31.10;18.52;;;;;;;;;;4813489;29;20490;-60
2023/03/03 13:12:15;;;;;;;36.60;18.85;;;;;;;;;;4822699;29;20081;-66
2023/03/03 13:14:53;;;;;;;29.38;18.83;;;;;;;;;;4822248;29;20079;-61
2023/03/03 13:17:21;;;;;;;30.75;18.25;;;;;;;;;;4822517;29;20446;-60
2023/03/03 13:19:59;;;;;;;29.95;18.45;;;;;;;;;;4822520;29;20059;-62
2023/03/03 13:22:36;;;;;;;44.80;26.40;;;;;;;;;;4822697;29;20391;-64
2023/03/03 13:25:08;;;;;;;44.80;26.42;;;;;;;;;;4822676;29;20030;-60
2023/03/03 13:27:41;;;;;;;39.63;23.00;;;;;;;;;;4814802;29;20083;-62
2023/03/03 13:30:07;;;;;;;32.75;20.25;;;;;;;;;;4812177;29;20038;-70
2023/03/03 13:32:55;;;;;;;32.83;18.67;;;;;;;;;;4812399;29;20038;-61
2023/03/03 13:35:53;;;;;;;30.85;18.85;;;;;;;;;;4812465;29;20091;-65
2023/03/03 13:38:25;;;;;;;32.30;18.25;;;;;;;;;;4739943;30;20497;-68
2023/03/03 13:40:57;;;;;;;33.63;18.70;;;;;;;;;;4743040;30;20433;-61
2023/03/03 13:43:28;;;;;;;27.98;16.40;;;;;;;;;;4745413;30;20564;-66
2023/03/03 13:46:04;;;;;;;27.92;16.00;;;;;;;;;;4739676;30;20077;-77
2023/03/03 13:48:45;;;;;;;29.73;16.92;;;;;;;;;;4744308;30;20055;-77
2023/03/03 13:51:11;;;;;;;31.02;17.08;;;;;;;;;;4729673;30;20037;-70
2023/03/03 13:53:37;;;;;;;28.30;15.60;;;;;;;;;;4729413;30;20700;-61
2023/03/03 13:56:21;;;;;;;23.38;14.50;;;;;;;;;;4730008;30;20498;-62
2023/03/03 13:58:55;;;;;;;28.83;15.10;;;;;;;;;;4729423;30;20117;-60
2023/03/03 14:01:39;;;;;;;25.85;15.52;;;;;;;;;;4730176;30;20106;-60
2023/03/03 14:04:12;;;;;;;26.63;14.90;;;;;;;;;;4732537;30;20229;-60
2023/03/03 14:06:41;;;;;;;25.67;14.02;;;;;;;;;;4751311;30;20047;-59
2023/03/03 14:09:32;;;;;;;23.25;13.32;;;;;;;;;;4769989;30;20052;-60
2023/03/03 14:12:06;;;;;;;26.42;13.75;;;;;;;;;;4764831;30;20447;-62
2023/03/03 14:14:35;;;;;;;25.10;15.05;;;;;;;;;;4811396;29;20054;-71
2023/03/03 14:17:14;;;;;;;25.88;15.57;;;;;;;;;;4820926;29;20026;-73
2023/03/03 14:19:46;;;;;;;24.92;15.35;;;;;;;;;;4821279;29;20502;-73
2023/03/03 14:22:15;;;;;;;24.90;15.15;;;;;;;;;;4826237;29;20037;-76
2023/03/03 14:24:55;;;;;;;28.08;16.33;;;;;;;;;;4857502;29;20040;-73
2023/03/03 14:27:26;;;;;;;28.92;17.45;;;;;;;;;;4858436;29;20026;-75
2023/03/03 14:29:52;;;;;;;26.60;15.88;;;;;;;;;;4858118;29;20030;-63
2023/03/03 14:32:25;;;;;;;34.60;17.40;;;;;;;;;;4858209;29;20064;-61
2023/03/03 14:35:13;;;;;;;27.95;16.80;;;;;;;;;;4857618;29;20048;-68
2023/03/03 14:37:43;;;;;;;30.70;17.65;;;;;;;;;;4857717;29;20116;-63
2023/03/03 14:40:09;;;;;;;39.40;23.17;;;;;;;;;;4858024;29;20037;-62
2023/03/03 14:42:39;;;;;;;44.78;26.13;;;;;;;;;;4857066;29;20496;-71
2023/03/03 14:45:25;;;;;;;46.67;26.38;;;;;;;;;;4830118;29;20030;-73
2023/03/03 14:47:51;;;;;;;43.80;27.33;;;;;;;;;;4815519;29;20047;-75
2023/03/03 14:50:31;;;;;;;47.85;28.02;;;;;;;;;;4821769;29;20062;-62
2023/03/03 14:53:20;;;;;;;49.13;28.08;;;;;;;;;;4826111;29;20045;-63
2023/03/03 14:55:51;;;;;;;47.55;28.27;;;;;;;;;;4823714;29;20026;-61
2023/03/03 14:58:38;;;;;;;50.00;30.67;;;;;;;;;;4821204;29;20045;-66
2023/03/03 15:01:07;;;;;;;47.30;29.38;;;;;;;;;;4829091;29;20061;-59
2023/03/03 15:03:36;;;;;;;51.85;30.25;;;;;;;;;;4832360;29;20573;-61
2023/03/03 15:06:10;;;;;;;49.67;29.85;;;;;;;;;;4837533;29;20050;-69
2023/03/03 15:08:36;;;;;;;49.42;29.85;;;;;;;;;;4820627;29;20031;-78
2023/03/03 15:11:18;;;;;;;50.95;29.52;;;;;;;;;;4808988;29;20067;-68
2023/03/03 15:13:44;;;;;;;53.35;30.85;;;;;;;;;;4812071;29;20153;-63
2023/03/03 15:16:24;;;;;;;50.53;30.30;;;;;;;;;;4812785;29;20054;-60
2023/03/03 15:19:10;;;;;;;52.10;31.65;;;;;;;;;;4805893;29;20035;-74
2023/03/03 15:21:39;;;;;;;50.85;29.77;;;;;;;;;;4806837;29;20559;-61
2023/03/03 15:24:05;;;;;;;58.33;32.75;;;;;;;;;;4806062;29;20035;-60
2023/03/03 15:26:43;;;;;;;55.95;32.67;;;;;;;;;;4805569;29;20077;-72
2023/03/03 15:29:09;;;;;;;55.80;30.98;;;;;;;;;;4821960;29;20428;-64
2023/03/03 15:31:43;;;;;;;56.60;30.17;;;;;;;;;;4823534;29;20533;-63
2023/03/03 15:34:10;;;;;;;53.40;30.05;;;;;;;;;;4816418;29;20509;-59
2023/03/03 15:36:50;;;;;;;58.40;31.65;;;;;;;;;;4822387;29;20042;-61
2023/03/03 15:39:32;;;;;;;51.20;30.27;;;;;;;;;;4815056;29;20553;-60
2023/03/03 15:41:58;;;;;;;55.00;32.03;;;;;;;;;;4815687;29;20049;-71
2023/03/03 15:44:45;;;;;;;56.42;31.45;;;;;;;;;;4823341;29;20031;-63
2023/03/03 15:47:14;;;;;;;55.38;31.58;;;;;;;;;;4820654;29;20049;-61
2023/03/03 15:49:59;;;;;;;57.35;32.50;;;;;;;;;;4823267;29;20038;-61
2023/03/03 15:52:34;;;;;;;60.13;32.47;;;;;;;;;;4822990;29;20401;-70
2023/03/03 15:55:12;;;;;;;55.63;30.42;;;;;;;;;;4804744;29;20174;-60
2023/03/03 15:57:57;;;;;;;56.28;31.45;;;;;;;;;;4819209;29;20034;-61
2023/03/03 16:00:26;;;;;;;56.65;31.13;;;;;;;;;;4813463;29;20519;-63
2023/03/03 16:02:55;;;;;;;55.13;30.92;;;;;;;;;;4812435;29;20113;-61
2023/03/03 16:05:21;;;;;;;56.92;31.20;;;;;;;;;;4811779;29;20027;-63
2023/03/03 16:08:16;;;;;;;53.42;30.92;;;;;;;;;;4813385;29;20058;-65
2023/03/03 16:11:03;;;;;;;60.28;31.98;;;;;;;;;;4740461;30;20060;-65
2023/03/03 16:13:50;;;;;;;56.50;32.47;;;;;;;;;;4737734;30;20098;-63
2023/03/03 16:16:22;;;;;;;66.45;34.90;;;;;;;;;;4730796;30;20098;-61
2023/03/03 16:18:57;;;;;;;65.57;33.40;;;;;;;;;;4731500;30;20043;-61
2023/03/03 16:21:23;;;;;;;63.90;34.55;;;;;;;;;;4742005;30;20110;-68
2023/03/03 16:24:12;;;;;;;62.30;33.88;;;;;;;;;;4743618;30;20035;-61
2023/03/03 16:26:43;;;;;;;65.07;35.90;;;;;;;;;;4722769;30;20087;-60
2023/03/03 16:29:16;;;;;;;69.93;35.53;;;;;;;;;;4722690;30;20156;-61
2023/03/03 16:31:54;;;;;;;68.20;35.50;;;;;;;;;;4719800;30;20074;-61
2023/03/03 16:34:29;;;;;;;68.85;37.08;;;;;;;;;;4720771;30;20052;-60
2023/03/03 16:37:11;;;;;;;72.78;36.97;;;;;;;;;;4720717;30;20067;-67
2023/03/03 16:39:37;;;;;;;;;;;;;;;;;;4720497;30;20075;-59
2023/03/03 16:42:08;;;;;;;80.75;39.88;;;;;;;;;;4717447;30;20103;-60
2023/03/03 16:44:50;;;;;;;83.57;40.87;;;;;;;;;;4721538;30;20889;-60
2023/03/03 16:47:21;;;;;;;81.78;42.17;;;;;;;;;;4748628;30;20112;-60
2023/03/03 16:50:00;;;;;;;84.10;42.45;;;;;;;;;;4778768;30;20040;-59
2023/03/03 16:52:35;;;;;;;83.43;43.17;;;;;;;;;;4778479;30;20032;-65
2023/03/03 16:55:13;;;;;;;91.30;44.55;;;;;;;;;;4775770;30;20040;-62
2023/03/03 16:57:45;;;;;;;87.78;43.60;;;;;;;;;;4772452;30;20043;-68
2023/03/03 17:00:14;;;;;;;88.97;43.92;;;;;;;;;;4774100;30;20114;-70
2023/03/03 17:03:11;;;;;;;88.68;44.17;;;;;;;;;;4776068;29;20040;-59
2023/03/03 17:05:44;;;;;;;88.35;44.15;;;;;;;;;;4809851;29;20046;-63
2023/03/03 17:08:10;;;;;;;88.22;44.30;;;;;;;;;;4813269;29;20046;-62
2023/03/03 17:10:50;;;;;;;91.43;46.75;;;;;;;;;;4809311;29;20035;-63
2023/03/03 17:13:16;;;;;;;89.22;46.03;;;;;;;;;;4811697;29;20043;-67
2023/03/03 17:15:44;;;;;;;87.72;43.75;;;;;;;;;;4811127;29;20039;-65
2023/03/03 17:18:12;;;;;;;101.03;48.03;;;;;;;;;;4819820;29;20026;-61
2023/03/03 17:20:45;;;;;;;94.90;46.25;;;;;;;;;;4822841;29;20117;-63
2023/03/03 17:23:26;;;;;;;101.38;46.58;;;;;;;;;;4822834;29;20407;-62
2023/03/03 17:26:27;;;;;;;94.60;46.17;;;;;;;;;;4822534;29;20027;-68
2023/03/03 17:29:20;;;;;;;97.50;48.03;;;;;;;;;;4726762;30;20037;-61
2023/03/03 17:31:46;;;;;;;97.35;48.35;;;;;;;;;;4704133;30;20054;-61
2023/03/03 17:34:21;;;;;;;100.05;48.17;;;;;;;;;;4702311;30;20488;-60
2023/03/03 17:36:47;;;;;;;102.90;48.10;;;;;;;;;;4701044;30;20140;-61
2023/03/03 17:39:16;;;;;;;97.13;48.30;;;;;;;;;;4703693;30;20114;-62
2023/03/03 17:41:53;;;;;;;99.13;49.88;;;;;;;;;;4689408;30;20149;-60
2023/03/03 17:44:22;;;;;;;104.70;51.00;;;;;;;;;;4699780;30;20112;-63
2023/03/03 17:46:50;;;;;;;105.88;52.42;;;;;;;;;;4703596;30;20055;-62
2023/03/03 17:49:17;;;;;;;107.32;50.17;;;;;;;;;;4704512;30;20533;-62
2023/03/03 17:51:56;;;;;;;107.00;50.42;;;;;;;;;;4686127;30;20399;-67
2023/03/03 17:54:27;;;;;;;107.45;50.65;;;;;;;;;;4703788;30;20072;-62
2023/03/03 17:57:23;;;;;;;106.50;51.37;;;;;;;;;;4701722;30;20042;-60
2023/03/03 17:59:51;;;;;;;108.70;52.58;;;;;;;;;;4677064;30;20386;-61
2023/03/03 18:02:49;;;;;;;118.07;52.70;;;;;;;;;;4697981;30;20055;-62
2023/03/03 18:05:41;;;;;;;116.47;52.00;;;;;;;;;;4745628;30;20159;-61
2023/03/03 18:08:07;;;;;;;115.63;50.63;;;;;;;;;;4703211;30;20994;-64
2023/03/03 18:10:42;;;;;;;110.00;49.88;;;;;;;;;;4701188;30;20519;-61
2023/03/03 18:13:27;;;;;;;110.53;49.90;;;;;;;;;;4701494;30;20045;-61
2023/03/03 18:16:05;;;;;;;108.80;49.17;;;;;;;;;;4701345;30;20121;-66
2023/03/03 18:18:48;;;;;;;107.00;49.08;;;;;;;;;;4702651;30;20157;-60
2023/03/03 18:21:15;;;;;;;102.90;48.60;;;;;;;;;;4703002;30;20049;-58
2023/03/03 18:23:44;;;;;;;106.95;50.60;;;;;;;;;;4703233;30;20038;-71
2023/03/03 18:26:22;;;;;;;111.88;51.58;;;;;;;;;;4699872;30;20442;-63
2023/03/03 18:28:50;;;;;;;107.03;49.20;;;;;;;;;;4703607;30;21157;-60
2023/03/03 18:31:21;;;;;;;103.57;48.70;;;;;;;;;;4703761;30;20045;-62
2023/03/03 18:34:07;;;;;;;109.55;50.63;;;;;;;;;;4697052;30;20053;-74
2023/03/03 18:36:33;;;;;;;104.00;48.25;;;;;;;;;;4732676;30;20044;-61
2023/03/03 18:39:03;;;;;;;108.63;50.30;;;;;;;;;;4754317;30;20074;-60
2023/03/03 18:41:31;;;;;;;109.28;51.53;;;;;;;;;;4799570;29;20518;-64
2023/03/03 18:44:23;;;;;;;114.80;54.40;;;;;;;;;;4822255;29;20026;-61
2023/03/03 18:46:50;;;;;;;120.80;53.77;;;;;;;;;;4825182;29;20042;-72
2023/03/03 18:49:16;;;;;;;115.82;50.67;;;;;;;;;;4824467;29;20022;-59
2023/03/03 18:51:42;;;;;;;115.13;50.10;;;;;;;;;;4824904;29;20031;-59
2023/03/03 18:54:11;;;;;;;113.90;50.50;;;;;;;;;;4824878;29;20083;-59
2023/03/03 18:56:40;;;;;;;114.05;50.42;;;;;;;;;;4810720;29;20763;-63
2023/03/03 18:59:08;;;;;;;117.97;50.05;;;;;;;;;;4810670;29;20129;-60
2023/03/03 19:01:42;;;;;;;114.45;49.33;;;;;;;;;;4815304;29;20141;-68
2023/03/03 19:04:08;;;;;;;110.28;48.53;;;;;;;;;;4810791;29;20026;-70
2023/03/03 19:06:37;;;;;;;112.15;48.08;;;;;;;;;;4806388;29;20471;-75
2023/03/03 19:09:04;;;;;;;109.38;48.67;;;;;;;;;;4807134;29;20117;-58
2023/03/03 19:11:35;;;;;;;108.97;48.80;;;;;;;;;;4807664;29;20042;-58
2023/03/03 19:14:26;;;;;;;104.95;47.28;;;;;;;;;;4806526;29;20088;-71
2023/03/03 19:16:53;;;;;;;106.32;45.47;;;;;;;;;;4750587;30;20040;-60
2023/03/03 19:19:21;;;;;;;103.93;46.95;;;;;;;;;;4750225;30;20048;-57
2023/03/03 19:21:50;;;;;;;101.25;44.90;;;;;;;;;;4750252;30;20063;-68
2023/03/03 19:24:22;;;;;;;101.40;44.83;;;;;;;;;;4750143;30;20123;-59
2023/03/03 19:27:06;;;;;;;103.65;44.40;;;;;;;;;;4750135;30;20032;-62
2023/03/03 19:29:55;;;;;;;101.03;43.72;;;;;;;;;;4750360;30;20054;-65
2023/03/03 19:32:27;;;;;;;98.65;43.42;;;;;;;;;;4744406;30;20056;-60
2023/03/03 19:35:11;;;;;;;111.45;48.30;;;;;;;;;;4742633;30;20047;-62
2023/03/03 19:37:37;;;;;;;112.00;47.85;;;;;;;;;;4738489;30;20870;-60
2023/03/03 19:40:41;;;;;;;116.07;49.15;;;;;;;;;;4740217;30;20078;-68
2023/03/03 19:43:30;;;;;;;101.80;44.97;;;;;;;;;;4736985;30;20047;-79
2023/03/03 19:45:56;;;;;;;104.82;44.47;;;;;;;;;;4744831;30;20050;-78
2023/03/03 19:48:34;;;;;;;100.30;43.65;;;;;;;;;;4724414;30;20083;-77
2023/03/03 19:51:35;;;;;;;97.15;43.40;;;;;;;;;;4741650;30;20076;-66
2023/03/03 19:54:24;;;;;;;112.50;45.65;;;;;;;;;;4711850;30;20151;-80
2023/03/03 19:56:57;;;;;;;104.50;43.53;;;;;;;;;;4739543;30;20527;-69
2023/03/03 19:59:39;;;;;;;102.65;44.33;;;;;;;;;;4739347;30;20151;-70
2023/03/03 20:02:24;;;;;;;101.55;43.25;;;;;;;;;;4731589;30;20056;-69
2023/03/03 20:04:56;;;;;;;102.15;43.28;;;;;;;;;;4737841;30;20056;-64
2023/03/03 20:07:32;;;;;;;108.88;43.15;;;;;;;;;;4770357;30;20047;-65
2023/03/03 20:10:15;;;;;;;99.70;44.97;;;;;;;;;;4784824;30;20047;-68
2023/03/03 20:13:13;;;;;;;101.43;43.85;;;;;;;;;;4784352;30;20472;-67
2023/03/03 20:15:43;;;;;;;101.30;44.13;;;;;;;;;;4748680;30;20067;-64
2023/03/03 20:18:28;;;;;;;101.05;42.30;;;;;;;;;;4748961;30;20960;-67
2023/03/03 20:20:54;;;;;;;101.05;44.63;;;;;;;;;;4749342;30;20135;-60
2023/03/03 20:23:21;;;;;;;95.72;44.50;;;;;;;;;;4748826;30;20110;-68
2023/03/03 20:26:01;;;;;;;100.45;46.25;;;;;;;;;;4748839;30;20529;-69
2023/03/03 20:28:48;;;;;;;100.78;45.55;;;;;;;;;;4785194;29;20043;-65
2023/03/03 20:31:32;;;;;;;105.95;45.97;;;;;;;;;;4802203;29;20043;-66
2023/03/03 20:33:58;;;;;;;108.20;45.30;;;;;;;;;;4802576;29;20068;-69
2023/03/03 20:36:48;;;;;;;110.72;45.90;;;;;;;;;;4801634;29;20547;-65
2023/03/03 20:39:17;;;;;;;103.25;44.85;;;;;;;;;;4783717;29;20074;-66
2023/03/03 20:41:48;;;;;;;109.03;44.72;;;;;;;;;;4784196;30;20131;-67
2023/03/03 20:44:20;;;;;;;100.07;43.40;;;;;;;;;;4783836;29;20039;-65
2023/03/03 20:47:03;;;;;;;106.68;43.30;;;;;;;;;;4784306;30;20307;-66
2023/03/03 20:49:33;;;;;;;103.90;43.10;;;;;;;;;;4783953;30;20087;-66
2023/03/03 20:52:07;;;;;;;108.80;44.85;;;;;;;;;;4814551;29;20144;-62
2023/03/03 20:54:50;;;;;;;111.63;44.83;;;;;;;;;;4822573;29;20045;-60
2023/03/03 20:57:35;;;;;;;106.43;43.40;;;;;;;;;;4824292;29;20033;-65
2023/03/03 21:00:01;;;;;;;109.85;42.95;;;;;;;;;;4840869;29;20428;-65